Change the Weather History Date:

Monday, April 22, 2013

  Actual Average (KGHW) Record (KGHW)
Temperature  
Mean Temperature 30 °F -  
Max Temperature 33 °F 61 °F 91 °F (1980)
Min Temperature 28 °F 36 °F 21 °F (1967)
Degree Days  
Heating Degree Days 34    
Moisture  
Dew Point 27 °F    
Average Humidity 85    
Maximum Humidity 100    
Minimum Humidity 65    
Precipitation  
Precipitation 0.02 in - - ()
Sea Level Pressure  
Sea Level Pressure 30.21 in    
Wind  
Wind Speed 9 mph (NNW)    
Max Wind Speed 15 mph    
Max Gust Speed 21 mph    
Visibility 8 miles    
Events Snow    
Averages and records for this station are not official NWS values.
T = Trace of Precipitation, MM = Missing Value Source: NWS Daily Summary

Daily Weather History Graph

Daily Weather History Graph

Search for Another Location

Airport or City:

Trip Planner

Search our weather history database for the weather conditions in past years. The results will help you decide how hot, cold, wet, or windy it might be!

Date:

Astronomy

Apr. 22, 2013 Rise Set
Actual Time 6:21 AM CDT 8:15 PM CDT
Civil Twilight 5:49 AM CDT 8:47 PM CDT
Nautical Twilight 5:10 AM CDT 9:26 PM CDT
Astronomical Twilight 4:27 AM CDT 10:09 PM CDT
Moon 4:57 PM CDT (4/22) 4:26 AM CDT (4/22)
Length of Visible Light 14h 58m
Length of Day
13h 54m
Waxing Gibbous, 88% of the Moon is Illuminated
Apr 22
Waxing Gibbous
Apr 25
Full
May 2
Last Quarter
May 9
New
May 17
First Quarter

Hourly Weather History & Observations

Time (CDT) Temp. Windchill Dew Point Humidity Pressure Visibility Wind Dir Wind Speed Gust Speed Precip Events Conditions
12:15 AM 33.8 °F 25.3 °F 30.2 °F 87% 30.14 in 10.0 mi NNW 11.5 mph 17.3 mph N/A   Overcast
12:35 AM 33.8 °F 24.8 °F 28.4 °F 81% 30.14 in 10.0 mi NNW 12.7 mph - N/A   Overcast
12:55 AM 33.8 °F 26.4 °F 28.4 °F 81% 30.15 in 10.0 mi NNW 9.2 mph - N/A   Overcast
1:15 AM 33.8 °F 27.0 °F 28.4 °F 81% 30.14 in 10.0 mi NW 8.1 mph - N/A   Overcast
1:35 AM 32.0 °F 23.6 °F 28.4 °F 87% 30.14 in 10.0 mi NW 10.4 mph - N/A   Overcast
1:55 AM 32.0 °F 24.2 °F 28.4 °F 87% 30.16 in 10.0 mi NW 9.2 mph - N/A   Overcast
2:15 AM 32.0 °F 23.6 °F 28.4 °F 87% 30.17 in 10.0 mi NW 10.4 mph - N/A   Overcast
2:35 AM 32.0 °F 24.8 °F 28.4 °F 87% 30.16 in 10.0 mi North 8.1 mph - N/A   Overcast
2:55 AM 32.0 °F 24.8 °F 28.4 °F 87% 30.17 in 10.0 mi NNW 8.1 mph - N/A   Overcast
3:15 AM 32.0 °F 24.8 °F 28.4 °F 87% 30.17 in 10.0 mi NNW 8.1 mph - N/A   Overcast
3:35 AM 32.0 °F 23.6 °F 26.6 °F 80% 30.17 in 10.0 mi NNW 10.4 mph - N/A   Overcast
3:55 AM 32.0 °F 27.5 °F 26.6 °F 80% 30.17 in 10.0 mi North 4.6 mph - N/A   Overcast
4:15 AM 32.0 °F 28.7 °F 26.6 °F 80% 30.18 in 10.0 mi NNW 3.5 mph - N/A   Scattered Clouds
4:35 AM 30.2 °F - 26.6 °F 86% 30.19 in 10.0 mi Calm Calm - N/A   Scattered Clouds
4:55 AM 30.2 °F 26.7 °F 26.6 °F 86% 30.21 in 10.0 mi WNW 3.5 mph - N/A   Overcast
5:15 AM 32.0 °F 25.6 °F 26.6 °F 80% 30.21 in 10.0 mi NW 6.9 mph - N/A   Overcast
5:35 AM 30.2 °F 22.6 °F 26.6 °F 86% 30.19 in 10.0 mi North 8.1 mph - N/A   Overcast
5:55 AM 30.2 °F 22.6 °F 26.6 °F 86% 30.19 in 10.0 mi NNW 8.1 mph - N/A   Mostly Cloudy
6:15 AM 30.2 °F 23.4 °F 26.6 °F 86% 30.20 in 10.0 mi NNW 6.9 mph - N/A   Clear
6:35 AM 30.2 °F 24.3 °F 26.6 °F 86% 30.21 in 10.0 mi NNW 5.8 mph - N/A   Clear
6:55 AM 28.4 °F 24.6 °F 26.6 °F 93% 30.21 in 10.0 mi North 3.5 mph - N/A   Clear
7:15 AM 30.2 °F 26.7 °F 26.6 °F 86% 30.22 in 10.0 mi North 3.5 mph - N/A   Clear
7:35 AM 30.2 °F 21.9 °F 26.6 °F 86% 30.21 in 10.0 mi North 9.2 mph - N/A   Clear
7:55 AM 30.2 °F 21.9 °F 26.6 °F 86% 30.20 in 10.0 mi North 9.2 mph - N/A   Clear
8:15 AM 30.2 °F 22.6 °F 26.6 °F 86% 30.20 in 10.0 mi North 8.1 mph - N/A   Clear
8:35 AM 32.0 °F 23.6 °F 26.6 °F 80% 30.21 in 10.0 mi North 10.4 mph - N/A   Clear
8:55 AM 32.0 °F 23.6 °F 26.6 °F 80% 30.21 in 10.0 mi NNE 10.4 mph - N/A   Clear
9:15 AM 32.0 °F 23.6 °F 26.6 °F 80% 30.23 in 10.0 mi North 10.4 mph - N/A   Clear
9:35 AM 32.0 °F 24.2 °F 26.6 °F 80% 30.23 in 10.0 mi North 9.2 mph - N/A   Clear
9:55 AM 32.0 °F 24.2 °F 26.6 °F 80% 30.23 in 10.0 mi North 9.2 mph - N/A   Clear
10:15 AM 32.0 °F 23.6 °F 26.6 °F 80% 30.23 in 10.0 mi North 10.4 mph - N/A   Clear
10:35 AM 32.0 °F 24.2 °F 26.6 °F 80% 30.24 in 10.0 mi North 9.2 mph - N/A   Scattered Clouds
10:55 AM 32.0 °F 24.8 °F 26.6 °F 80% 30.25 in 10.0 mi North 8.1 mph - N/A   Overcast
11:15 AM 32.0 °F 24.2 °F 24.8 °F 75% 30.26 in 10.0 mi North 9.2 mph - N/A   Overcast
11:35 AM 32.0 °F 23.6 °F 23.0 °F 69% 30.24 in 10.0 mi North 10.4 mph - N/A   Mostly Cloudy
11:55 AM 33.8 °F 26.4 °F 23.0 °F 65% 30.24 in 10.0 mi NNE 9.2 mph - N/A   Scattered Clouds
12:15 PM 33.8 °F 25.8 °F 23.0 °F 65% 30.22 in 10.0 mi North 10.4 mph - N/A   Mostly Cloudy
12:35 PM 33.8 °F 25.8 °F 23.0 °F 65% 30.23 in 10.0 mi North 10.4 mph - N/A   Overcast
12:55 PM 33.8 °F 23.9 °F 23.0 °F 65% 30.22 in 10.0 mi North 15.0 mph - N/A   Mostly Cloudy
1:15 PM 33.8 °F 23.9 °F 23.0 °F 65% 30.21 in 10.0 mi North 15.0 mph 20.7 mph N/A   Overcast
1:35 PM 33.8 °F 23.9 °F 23.0 °F 65% 30.21 in 10.0 mi North 15.0 mph 20.7 mph N/A   Overcast
1:55 PM 33.8 °F 25.3 °F 26.6 °F 75% 30.22 in 10.0 mi North 11.5 mph - N/A   Overcast
2:15 PM 32.0 °F 22.1 °F 26.6 °F 80% 30.23 in 7.0 mi North 13.8 mph - N/A Snow Light Snow
2:35 PM 30.2 °F 21.3 °F 28.4 °F 93% 30.23 in 0.5 mi North 10.4 mph - N/A Snow Snow
2:55 PM 30.2 °F 22.6 °F 28.4 °F 93% 30.23 in 0.5 mi North 8.1 mph - N/A Snow Snow
3:15 PM 30.2 °F 21.9 °F 28.4 °F 93% 30.21 in 0.5 mi North 9.2 mph - N/A Snow Snow
3:35 PM 30.2 °F 21.3 °F 28.4 °F 93% 30.21 in 0.2 mi North 10.4 mph - N/A Snow Snow
3:55 PM 30.2 °F 21.9 °F 28.4 °F 93% 30.21 in 0.5 mi North 9.2 mph - 0.01 in Snow Light Snow
4:15 PM 30.2 °F 24.3 °F 28.4 °F 93% 30.21 in 1.5 mi North 5.8 mph - N/A Snow Light Snow
4:35 PM 30.2 °F 22.6 °F 28.4 °F 93% 30.21 in 1.2 mi North 8.1 mph - N/A Snow Light Snow
4:55 PM 30.2 °F 23.4 °F 30.2 °F 100% 30.21 in 1.2 mi North 6.9 mph - N/A Snow Light Snow
5:15 PM 30.2 °F 24.3 °F 30.2 °F 100% 30.21 in 1.2 mi North 5.8 mph - 0.01 in Snow Light Snow
5:35 PM 30.2 °F 24.3 °F 30.2 °F 100% 30.21 in 1.5 mi North 5.8 mph - 0.01 in Snow Light Snow
5:55 PM 32.0 °F 26.4 °F 30.2 °F 93% 30.21 in 1.5 mi North 5.8 mph - 0.01 in Snow Light Snow
6:15 PM 30.2 °F 22.6 °F 28.4 °F 93% 30.21 in 2.0 mi North 8.1 mph - N/A Snow Light Snow
6:35 PM 30.2 °F 22.6 °F 28.4 °F 93% 30.21 in 1.5 mi North 8.1 mph - N/A Snow Light Snow
6:55 PM 30.2 °F 24.3 °F 30.2 °F 100% 30.21 in 1.8 mi North 5.8 mph - N/A Snow Light Snow
7:15 PM 30.2 °F 23.4 °F 30.2 °F 100% 30.21 in 1.8 mi NNW 6.9 mph - N/A Snow Light Snow
7:35 PM 30.2 °F 24.3 °F 28.4 °F 93% 30.22 in 2.0 mi North 5.8 mph - N/A Snow Light Snow
7:55 PM 30.2 °F 24.3 °F 28.4 °F 93% 30.22 in 2.0 mi North 5.8 mph - N/A Snow Light Snow
8:15 PM 30.2 °F 25.4 °F 28.4 °F 93% 30.22 in 4.0 mi North 4.6 mph - N/A Snow Light Snow
8:35 PM 30.2 °F 25.4 °F 28.4 °F 93% 30.22 in 5.0 mi NNW 4.6 mph - N/A Snow Light Snow
8:55 PM 30.2 °F 26.7 °F 28.4 °F 93% 30.22 in 10.0 mi West 3.5 mph - N/A   Overcast
9:15 PM 30.2 °F 26.7 °F 28.4 °F 93% 30.22 in 10.0 mi WNW 3.5 mph - N/A   Overcast
9:35 PM 30.2 °F 23.4 °F 26.6 °F 86% 30.22 in 10.0 mi NW 6.9 mph - N/A   Overcast
9:55 PM 30.2 °F 22.6 °F 26.6 °F 86% 30.22 in 10.0 mi NW 8.1 mph - N/A   Overcast
10:15 PM 30.2 °F 22.6 °F 24.8 °F 80% 30.22 in 10.0 mi NNW 8.1 mph - N/A   Overcast
10:35 PM 30.2 °F 22.6 °F 24.8 °F 80% 30.22 in 10.0 mi NW 8.1 mph - N/A   Overcast
10:55 PM 30.2 °F 21.3 °F 24.8 °F 80% 30.22 in 10.0 mi NW 10.4 mph - N/A   Overcast
11:15 PM 30.2 °F 21.3 °F 24.8 °F 80% 30.21 in 10.0 mi NW 10.4 mph - N/A   Overcast
11:35 PM 28.4 °F 19.7 °F 23.0 °F 80% 30.21 in 10.0 mi NW 9.2 mph - N/A   Overcast
11:55 PM 28.4 °F 19.1 °F 23.0 °F 80% 30.22 in 10.0 mi NW 10.4 mph - N/A   Mostly Cloudy